Time;durP1;ratioP1;P1;durP2;ratioP2;P2;SDS_P1;SDS_P2;PMS_P1;PMS_P2;Temp;Humidity;BMP_temperature;BMP_pressure;BME280_temperature;BME280_humidity;BME280_pressure;Samples;Min_cycle;Max_cycle;Signal;HPM_P1;HPM_P2
2023/07/24 00:01:00;;;;;;;6.82;6.43;;;20.50;99.90;;;;;;5060237;28;20025;-94
2023/07/24 00:03:26;;;;;;;7.07;6.63;;;20.50;99.90;;;;;;5058371;28;20024;-93
2023/07/24 00:05:51;;;;;;;7.75;7.28;;;20.40;99.90;;;;;;5058107;28;20032;-94
2023/07/24 00:08:17;;;;;;;6.60;6.20;;;20.50;99.90;;;;;;5056884;28;20021;-95
2023/07/24 00:10:43;;;;;;;7.72;7.32;;;20.40;99.90;;;;;;5059968;28;20036;-95
2023/07/24 00:13:21;;;;;;;7.07;6.68;;;20.50;99.90;;;;;;5026938;28;20048;-94
2023/07/24 00:15:47;;;;;;;7.05;6.65;;;20.40;99.90;;;;;;5043089;28;20173;-95
2023/07/24 00:18:13;;;;;;;6.45;6.00;;;20.50;99.90;;;;;;5059015;28;20123;-95
2023/07/24 00:20:41;;;;;;;7.10;6.70;;;20.50;99.90;;;;;;5059155;28;20078;-94
2023/07/24 00:23:14;;;;;;;6.97;6.50;;;20.40;99.90;;;;;;5059178;28;20016;-94
2023/07/24 00:25:42;;;;;;;6.85;6.47;;;20.40;99.90;;;;;;5059289;28;20457;-94
2023/07/24 00:28:08;;;;;;;7.18;6.75;;;20.50;99.90;;;;;;5059103;28;20039;-93
2023/07/24 00:30:36;;;;;;;6.68;6.28;;;20.40;99.90;;;;;;5058710;28;20452;-95
2023/07/24 00:33:02;;;;;;;7.15;6.75;;;20.40;99.90;;;;;;5059395;28;20055;-94
2023/07/24 00:35:28;;;;;;;6.80;6.45;;;20.40;99.90;;;;;;5058739;28;20029;-95
2023/07/24 00:37:53;;;;;;;6.47;6.10;;;20.40;99.90;;;;;;5058852;28;20063;-94
2023/07/24 00:40:19;;;;;;;6.78;6.28;;;20.40;99.90;;;;;;5058972;28;20468;-95
2023/07/24 00:42:51;;;;;;;6.80;6.40;;;20.40;99.90;;;;;;5058400;28;20029;-95
2023/07/24 00:45:19;;;;;;;6.40;6.05;;;20.40;99.90;;;;;;5058972;28;20021;-94
2023/07/24 00:47:45;;;;;;;6.13;5.78;;;20.40;99.90;;;;;;5058969;28;20020;-94
2023/07/24 00:50:12;;;;;;;6.00;5.65;;;20.40;99.90;;;;;;5042128;28;20020;-95
2023/07/24 00:52:41;;;;;;;6.30;5.95;;;20.40;99.90;;;;;;5058531;28;20027;-94
2023/07/24 00:55:09;;;;;;;5.53;5.22;;;20.40;99.90;;;;;;5076450;28;20025;-94
2023/07/24 00:57:35;;;;;;;6.10;5.70;;;20.40;99.90;;;;;;5058301;28;20033;-96
2023/07/24 01:00:00;;;;;;;6.10;5.72;;;20.40;99.90;;;;;;5058385;28;20472;-93
2023/07/24 01:02:27;;;;;;;6.18;5.82;;;20.40;99.90;;;;;;5058839;28;20078;-96
2023/07/24 01:04:53;;;;;;;6.03;5.68;;;20.50;99.90;;;;;;5042462;28;20032;-95
2023/07/24 01:07:23;;;;;;;5.95;5.65;;;20.40;99.90;;;;;;5059025;28;20028;-95
2023/07/24 01:09:52;;;;;;;7.20;6.65;;;20.40;99.90;;;;;;5059135;28;20174;-95
2023/07/24 01:12:43;;;;;;;6.32;5.95;;;20.40;99.90;;;;;;5042709;28;20029;-94
2023/07/24 01:15:25;;;;;;;6.05;5.68;;;20.40;99.90;;;;;;5059548;28;20025;-92
2023/07/24 01:18:11;;;;;;;6.40;6.00;;;20.40;99.90;;;;;;5077739;28;20040;-95
2023/07/24 01:20:47;;;;;;;6.13;5.72;;;20.40;99.90;;;;;;5044599;28;20104;-94
2023/07/24 01:23:31;;;;;;;5.85;5.55;;;20.40;99.90;;;;;;5082629;28;20033;-94
2023/07/24 01:26:04;;;;;;;6.43;5.88;;;20.40;99.90;;;;;;5078505;28;20029;-92
2023/07/24 01:28:30;;;;;;;6.00;5.65;;;20.40;99.90;;;;;;5064791;28;20025;-94
2023/07/24 01:30:57;;;;;;;5.47;5.10;;;20.40;99.90;;;;;;5056824;28;20384;-94
2023/07/24 01:33:23;;;;;;;5.97;5.57;;;20.40;99.90;;;;;;5050896;28;20223;-94
2023/07/24 01:35:53;;;;;;;6.07;5.68;;;20.40;99.90;;;;;;5049286;28;20082;-93
2023/07/24 01:38:20;;;;;;;6.20;5.75;;;20.40;99.90;;;;;;5080048;28;20036;-95
2023/07/24 01:40:52;;;;;;;6.00;5.63;;;20.40;99.90;;;;;;5060596;28;20032;-94
2023/07/24 01:43:18;;;;;;;5.90;5.50;;;20.40;99.90;;;;;;5025768;28;20026;-96
2023/07/24 01:45:44;;;;;;;5.88;5.50;;;20.40;99.90;;;;;;5038898;28;20404;-95
2023/07/24 01:48:09;;;;;;;5.97;5.57;;;20.40;99.90;;;;;;5024577;28;20119;-94
2023/07/24 01:50:35;;;;;;;6.25;5.75;;;20.40;99.90;;;;;;5040511;28;20029;-94
2023/07/24 01:53:01;;;;;;;6.30;5.90;;;20.40;99.90;;;;;;5040127;28;20040;-94
2023/07/24 01:55:27;;;;;;;5.55;5.20;;;20.40;99.90;;;;;;5040380;28;20468;-95
2023/07/24 01:57:52;;;;;;;6.28;5.82;;;20.40;99.90;;;;;;5056869;28;20028;-94
2023/07/24 02:00:21;;;;;;;5.93;5.53;;;20.40;99.90;;;;;;5024720;28;20021;-94
2023/07/24 02:02:47;;;;;;;6.40;6.00;;;20.40;99.90;;;;;;5041120;28;20029;-95
2023/07/24 02:05:14;;;;;;;6.25;5.75;;;20.40;99.90;;;;;;5057177;28;20030;-95
2023/07/24 02:07:40;;;;;;;6.20;5.78;;;20.40;99.90;;;;;;5057009;28;20029;-95
2023/07/24 02:10:06;;;;;;;5.82;5.43;;;20.40;99.90;;;;;;5056844;28;20047;-95
2023/07/24 02:12:32;;;;;;;6.22;5.72;;;20.40;99.90;;;;;;5057254;28;20032;-93
2023/07/24 02:15:01;;;;;;;5.93;5.57;;;20.40;99.90;;;;;;5057230;28;20026;-94
2023/07/24 02:17:27;;;;;;;5.97;5.57;;;20.40;99.90;;;;;;5040227;28;20473;-96
2023/07/24 02:19:52;;;;;;;6.60;6.03;;;20.40;99.90;;;;;;5057127;28;20032;-94
2023/07/24 02:22:18;;;;;;;6.03;5.63;;;20.40;99.90;;;;;;5057085;28;20048;-95
2023/07/24 02:24:44;;;;;;;5.75;5.35;;;20.40;99.90;;;;;;5057008;28;20025;-94
2023/07/24 02:27:14;;;;;;;5.47;5.13;;;20.40;99.90;;;;;;5056847;28;20032;-95
2023/07/24 02:29:39;;;;;;;6.35;5.78;;;20.40;99.90;;;;;;5057153;28;20021;-93
2023/07/24 02:32:05;;;;;;;5.88;5.47;;;20.40;99.90;;;;;;5057000;28;20020;-94
2023/07/24 02:34:31;;;;;;;6.28;5.80;;;20.40;99.90;;;;;;5040557;28;20024;-93
2023/07/24 02:36:57;;;;;;;5.85;5.45;;;20.40;99.90;;;;;;5040154;28;20472;-96
2023/07/24 02:39:26;;;;;;;5.90;5.47;;;20.40;99.90;;;;;;5057011;28;20108;-95
2023/07/24 02:41:54;;;;;;;6.10;5.65;;;20.40;99.90;;;;;;5075205;28;20020;-96
2023/07/24 02:44:20;;;;;;;5.95;5.53;;;20.50;99.90;;;;;;5056978;28;20034;-94
2023/07/24 02:46:49;;;;;;;6.18;5.78;;;20.50;99.90;;;;;;5056606;28;20028;-94
2023/07/24 02:49:17;;;;;;;6.20;5.70;;;20.50;99.90;;;;;;5040386;28;20165;-95
2023/07/24 02:51:46;;;;;;;6.45;5.95;;;20.40;99.90;;;;;;5056962;28;20465;-94
2023/07/24 02:54:12;;;;;;;6.63;6.13;;;20.50;99.90;;;;;;5056914;28;20036;-94
2023/07/24 02:56:40;;;;;;;6.68;6.18;;;20.50;99.90;;;;;;5056592;28;20482;-94
2023/07/24 02:59:11;;;;;;;6.65;6.15;;;20.50;99.90;;;;;;5056878;28;20028;-95
2023/07/24 03:01:37;;;;;;;6.95;6.43;;;20.40;99.90;;;;;;5074707;28;20028;-93
2023/07/24 03:04:05;;;;;;;7.05;6.53;;;20.40;99.90;;;;;;5074807;28;20074;-94
2023/07/24 03:06:33;;;;;;;6.40;5.68;;;20.40;99.90;;;;;;5059259;28;20020;-94
2023/07/24 03:08:58;;;;;;;6.93;6.43;;;20.40;99.90;;;;;;5060884;28;20151;-95
2023/07/24 03:11:24;;;;;;;6.70;6.10;;;20.40;99.90;;;;;;5078924;28;20060;-94
2023/07/24 03:13:53;;;;;;;6.63;6.15;;;20.40;99.90;;;;;;5061381;28;20127;-95
2023/07/24 03:16:21;;;;;;;6.75;6.25;;;20.40;99.90;;;;;;5062703;28;20031;-96
2023/07/24 03:18:47;;;;;;;6.75;6.25;;;20.40;99.90;;;;;;5065592;28;20036;-96
2023/07/24 03:21:13;;;;;;;7.13;6.53;;;20.40;99.90;;;;;;5074003;28;20084;-93
2023/07/24 03:23:42;;;;;;;7.22;6.57;;;20.40;99.90;;;;;;5080100;28;20040;-95
2023/07/24 03:26:18;;;;;;;6.55;6.05;;;20.40;99.90;;;;;;5078602;28;20024;-94
2023/07/24 03:28:47;;;;;;;6.35;5.85;;;20.30;99.90;;;;;;5071003;28;20036;-94
2023/07/24 03:31:19;;;;;;;7.13;6.47;;;20.30;99.90;;;;;;5068665;28;20031;-94
2023/07/24 03:33:47;;;;;;;7.55;7.03;;;20.30;99.90;;;;;;5062389;28;20486;-92
2023/07/24 03:36:13;;;;;;;8.10;7.30;;;20.30;99.90;;;;;;5078421;28;20056;-94
2023/07/24 03:38:41;;;;;;;8.18;7.57;;;20.30;99.90;;;;;;5060558;28;20090;-93
2023/07/24 03:41:10;;;;;;;7.03;6.45;;;20.30;99.90;;;;;;5077694;28;20038;-95
2023/07/24 03:43:36;;;;;;;6.68;6.18;;;20.20;99.90;;;;;;5077766;28;20024;-94
2023/07/24 03:46:02;;;;;;;6.70;6.20;;;20.20;99.90;;;;;;5077644;28;20074;-90
2023/07/24 03:48:30;;;;;;;6.93;6.40;;;20.20;99.90;;;;;;5043121;28;20055;-94
2023/07/24 03:51:02;;;;;;;7.57;6.45;;;20.20;99.90;;;;;;5042322;28;20033;-93
2023/07/24 03:53:34;;;;;;;6.60;6.00;;;20.20;99.90;;;;;;5063913;28;20059;-93
2023/07/24 03:55:59;;;;;;;6.28;5.78;;;20.20;99.90;;;;;;5047188;28;20035;-94
2023/07/24 03:58:27;;;;;;;7.03;6.38;;;20.10;99.90;;;;;;5061695;28;20037;-94
2023/07/24 04:00:53;;;;;;;6.57;5.85;;;20.10;99.90;;;;;;5061709;28;20024;-94
2023/07/24 04:03:22;;;;;;;6.65;6.18;;;20.10;99.90;;;;;;5061208;28;20021;-92
2023/07/24 04:05:51;;;;;;;6.60;6.10;;;20.10;99.90;;;;;;5061000;28;20020;-93
2023/07/24 04:08:19;;;;;;;6.65;6.05;;;20.10;99.90;;;;;;5077219;28;20056;-92
2023/07/24 04:10:44;;;;;;;6.75;6.22;;;20.00;99.90;;;;;;5059432;28;20039;-94
2023/07/24 04:13:12;;;;;;;6.32;5.82;;;20.00;99.90;;;;;;5060018;28;20103;-94
2023/07/24 04:15:41;;;;;;;6.47;5.95;;;20.00;99.90;;;;;;5059872;28;20033;-95
2023/07/24 04:18:09;;;;;;;6.30;5.80;;;20.00;99.90;;;;;;5058683;28;20064;-93
2023/07/24 04:20:38;;;;;;;6.40;5.93;;;20.00;99.90;;;;;;5059675;28;20028;-94
2023/07/24 04:23:03;;;;;;;6.50;6.00;;;19.90;99.90;;;;;;5077271;28;20052;-94
2023/07/24 04:25:29;;;;;;;6.93;6.40;;;19.90;99.90;;;;;;5059166;28;20071;-93
2023/07/24 04:27:55;;;;;;;8.00;5.88;;;19.90;99.90;;;;;;5058974;28;20037;-93
2023/07/24 04:30:26;;;;;;;5.95;5.55;;;19.90;99.90;;;;;;5042314;28;20059;-91
2023/07/24 04:32:55;;;;;;;6.05;5.60;;;19.90;99.90;;;;;;5058553;28;20517;-93
2023/07/24 04:35:27;;;;;;;6.50;6.03;;;19.90;99.90;;;;;;5043106;28;20027;-93
2023/07/24 04:37:52;;;;;;;6.00;5.57;;;19.90;99.90;;;;;;5058582;28;20480;-93
2023/07/24 04:40:26;;;;;;;6.65;6.15;;;20.00;99.90;;;;;;5059211;28;20028;-94
2023/07/24 04:42:51;;;;;;;6.80;6.25;;;19.90;99.90;;;;;;5059775;28;20020;-94
2023/07/24 04:45:17;;;;;;;6.10;5.60;;;19.90;99.90;;;;;;5043091;28;20115;-95
2023/07/24 04:47:43;;;;;;;6.35;5.80;;;19.90;99.90;;;;;;5076669;28;20040;-94
2023/07/24 04:50:09;;;;;;;6.70;6.13;;;19.90;99.90;;;;;;5058942;28;20024;-94
2023/07/24 04:52:37;;;;;;;6.80;6.20;;;19.90;99.90;;;;;;5059533;28;20456;-94
2023/07/24 04:55:03;;;;;;;6.28;5.78;;;19.90;99.90;;;;;;5075897;28;20495;-84
2023/07/24 04:57:29;;;;;;;5.93;5.47;;;19.90;99.90;;;;;;5056592;28;20141;-85
2023/07/24 04:59:55;;;;;;;7.15;6.57;;;19.90;99.90;;;;;;5057381;28;20036;-85
2023/07/24 05:02:23;;;;;;;5.97;5.47;;;19.90;99.90;;;;;;5040704;28;20028;-86
2023/07/24 05:04:49;;;;;;;6.57;6.07;;;19.90;99.90;;;;;;5056899;28;20016;-85
2023/07/24 05:07:15;;;;;;;6.03;5.53;;;19.90;99.90;;;;;;5075054;28;20102;-85
2023/07/24 05:09:41;;;;;;;6.25;5.70;;;19.80;99.90;;;;;;5040371;28;20443;-84
2023/07/24 05:12:07;;;;;;;6.75;6.07;;;19.90;99.90;;;;;;5063309;28;20361;-85
2023/07/24 05:14:32;;;;;;;6.45;5.95;;;19.90;99.90;;;;;;5070941;28;20099;-85
2023/07/24 05:17:01;;;;;;;6.53;6.03;;;19.80;99.90;;;;;;5080244;28;20020;-85
2023/07/24 05:19:29;;;;;;;6.90;6.38;;;19.80;99.90;;;;;;5080033;28;20005;-84
2023/07/24 05:21:55;;;;;;;7.20;6.63;;;19.80;99.90;;;;;;5063241;28;20020;-84
2023/07/24 05:24:20;;;;;;;6.07;5.68;;;19.80;99.90;;;;;;5072274;28;20023;-85
2023/07/24 05:26:46;;;;;;;6.22;5.72;;;19.80;99.90;;;;;;5080066;28;20020;-84
2023/07/24 05:29:11;;;;;;;6.50;6.00;;;19.80;99.90;;;;;;5055992;28;20070;-84
2023/07/24 05:31:37;;;;;;;7.07;6.03;;;19.80;99.90;;;;;;5040220;28;20499;-84
2023/07/24 05:34:03;;;;;;;7.13;6.63;;;19.70;99.90;;;;;;5039931;28;20029;-84
2023/07/24 05:36:29;;;;;;;6.65;6.15;;;19.70;99.90;;;;;;5056021;28;20040;-84
2023/07/24 05:38:56;;;;;;;6.80;6.30;;;19.70;99.90;;;;;;5023032;28;20533;-84
2023/07/24 05:41:21;;;;;;;6.38;5.88;;;19.80;99.90;;;;;;5055459;28;20025;-85
2023/07/24 05:43:47;;;;;;;7.72;7.13;;;19.70;99.90;;;;;;5055817;28;20145;-85
2023/07/24 05:46:13;;;;;;;7.10;6.60;;;19.70;99.90;;;;;;5073381;28;20503;-84
2023/07/24 05:48:38;;;;;;;7.60;7.00;;;19.70;99.90;;;;;;5055118;28;20490;-83
2023/07/24 05:51:04;;;;;;;7.13;6.63;;;19.70;99.90;;;;;;5055376;28;20422;-84
2023/07/24 05:53:30;;;;;;;7.70;7.10;;;19.80;99.90;;;;;;5055611;28;20031;-84
2023/07/24 05:56:02;;;;;;;7.90;7.18;;;19.80;99.90;;;;;;5055890;28;20452;-84
2023/07/24 05:58:30;;;;;;;7.60;7.00;;;19.70;99.90;;;;;;5054764;28;20029;-83
2023/07/24 06:00:56;;;;;;;7.90;7.30;;;19.70;99.90;;;;;;5039093;28;20029;-84
2023/07/24 06:03:23;;;;;;;7.53;6.80;;;19.70;99.90;;;;;;5039178;28;20106;-83
2023/07/24 06:05:55;;;;;;;7.50;6.90;;;19.80;99.90;;;;;;5073350;28;20111;-84
2023/07/24 06:08:22;;;;;;;8.23;7.53;;;19.80;99.90;;;;;;5055495;28;20043;-84
2023/07/24 06:10:49;;;;;;;7.82;7.22;;;19.80;99.90;;;;;;5073253;28;20056;-82
2023/07/24 06:13:18;;;;;;;8.80;8.00;;;19.80;99.90;;;;;;5055540;28;20028;-83
2023/07/24 06:15:44;;;;;;;8.15;7.35;;;19.80;99.90;;;;;;5055875;28;20025;-83
2023/07/24 06:18:10;;;;;;;8.32;7.72;;;19.80;99.90;;;;;;5055645;28;20036;-83
2023/07/24 06:20:36;;;;;;;8.50;7.80;;;19.80;99.90;;;;;;5039066;28;20032;-83
2023/07/24 06:23:03;;;;;;;8.25;7.65;;;19.80;99.90;;;;;;5055628;28;20025;-83
2023/07/24 06:25:30;;;;;;;8.50;7.82;;;19.80;99.90;;;;;;5055616;28;20489;-83
2023/07/24 06:27:56;;;;;;;9.60;8.80;;;19.80;99.90;;;;;;5055710;28;20112;-83
2023/07/24 06:30:22;;;;;;;9.07;8.27;;;19.90;99.90;;;;;;5073128;28;20141;-83
2023/07/24 06:32:47;;;;;;;9.00;8.32;;;19.80;99.90;;;;;;5073767;28;20036;-82
2023/07/24 06:35:13;;;;;;;9.15;8.40;;;19.90;99.90;;;;;;5038977;28;20039;-82
2023/07/24 06:37:39;;;;;;;8.73;7.93;;;19.90;99.90;;;;;;5055312;28;20036;-83
2023/07/24 06:40:06;;;;;;;9.10;8.30;;;19.90;99.90;;;;;;5057012;28;20031;-83
2023/07/24 06:42:32;;;;;;;9.55;8.40;;;20.00;99.90;;;;;;5059109;28;20017;-83
2023/07/24 06:45:01;;;;;;;13.07;9.07;;;20.00;99.90;;;;;;5042837;28;20542;-83
2023/07/24 06:47:26;;;;;;;10.23;8.48;;;20.00;99.90;;;;;;5043705;28;20376;-83
2023/07/24 06:49:52;;;;;;;9.57;8.77;;;20.00;99.90;;;;;;5059662;28;20028;-83
2023/07/24 06:52:18;;;;;;;9.10;8.30;;;20.00;99.90;;;;;;5059371;28;20376;-83
2023/07/24 06:54:43;;;;;;;9.55;8.75;;;20.10;99.90;;;;;;5059293;28;20036;-83
2023/07/24 06:57:09;;;;;;;9.50;8.63;;;20.00;99.90;;;;;;5042695;28;20040;-83
2023/07/24 06:59:35;;;;;;;10.25;9.45;;;20.10;99.90;;;;;;5059582;28;20033;-83
2023/07/24 07:02:00;;;;;;;9.90;8.98;;;20.10;99.90;;;;;;5043177;28;20025;-83
2023/07/24 07:04:26;;;;;;;11.48;10.35;;;20.00;99.90;;;;;;5078430;28;20036;-83
2023/07/24 07:06:52;;;;;;;10.75;9.75;;;20.00;99.90;;;;;;5061987;28;20084;-83
2023/07/24 07:09:17;;;;;;;10.77;9.88;;;20.00;99.90;;;;;;5046632;28;20052;-83
2023/07/24 07:11:46;;;;;;;10.38;9.57;;;20.00;99.90;;;;;;5035188;28;20039;-83
2023/07/24 07:14:12;;;;;;;10.63;9.60;;;20.10;99.90;;;;;;5057137;28;20025;-83
2023/07/24 07:16:47;;;;;;;10.75;9.75;;;20.20;99.90;;;;;;5057681;28;20059;-84
2023/07/24 07:19:13;;;;;;;10.35;9.45;;;20.20;99.90;;;;;;5063730;28;20051;-83
2023/07/24 07:21:39;;;;;;;11.50;10.45;;;20.30;99.90;;;;;;5070417;28;20025;-82
2023/07/24 07:24:04;;;;;;;11.75;10.52;;;20.30;99.90;;;;;;5026360;28;20051;-83
2023/07/24 07:26:30;;;;;;;12.30;11.20;;;20.40;99.90;;;;;;5043100;28;20029;-83
2023/07/24 07:28:56;;;;;;;11.32;10.32;;;20.40;99.90;;;;;;5059505;28;20475;-82
2023/07/24 07:31:21;;;;;;;11.93;10.90;;;20.40;99.90;;;;;;5059274;28;20031;-82
2023/07/24 07:33:48;;;;;;;11.68;10.68;;;20.50;99.90;;;;;;5059157;28;20388;-83
2023/07/24 07:36:13;;;;;;;11.68;10.63;;;20.50;99.90;;;;;;5076908;28;20031;-82
2023/07/24 07:38:39;;;;;;;12.40;11.30;;;20.50;99.90;;;;;;5058773;28;20032;-83
2023/07/24 07:41:06;;;;;;;12.32;11.20;;;20.60;99.90;;;;;;5058671;28;20118;-83
2023/07/24 07:43:32;;;;;;;12.23;11.13;;;20.60;99.90;;;;;;5058628;28;20115;-83
2023/07/24 07:45:59;;;;;;;13.07;11.88;;;20.60;99.90;;;;;;5042196;28;20051;-83
2023/07/24 07:48:24;;;;;;;12.38;11.20;;;20.70;99.90;;;;;;5025944;28;20547;-83
2023/07/24 07:50:51;;;;;;;11.65;10.65;;;20.70;99.90;;;;;;5041441;28;20124;-83
2023/07/24 07:53:17;;;;;;;12.85;11.50;;;20.70;99.90;;;;;;5058197;28;20373;-83
2023/07/24 07:55:43;;;;;;;12.00;10.88;;;20.70;99.90;;;;;;5076234;28;20028;-83
2023/07/24 07:58:08;;;;;;;11.65;10.55;;;20.70;99.90;;;;;;5058518;28;20044;-83
2023/07/24 08:00:34;;;;;;;12.23;11.13;;;20.70;99.90;;;;;;5041450;28;20021;-83
2023/07/24 08:03:00;;;;;;;12.77;11.57;;;20.70;99.90;;;;;;5058144;28;20033;-83
2023/07/24 08:05:26;;;;;;;11.48;10.52;;;20.70;99.90;;;;;;5058226;28;20490;-84
2023/07/24 08:07:52;;;;;;;10.90;9.90;;;20.70;99.90;;;;;;5040823;28;20029;-83
2023/07/24 08:10:17;;;;;;;12.27;11.02;;;20.70;99.90;;;;;;5057542;28;20059;-84
2023/07/24 08:12:44;;;;;;;12.48;11.15;;;20.70;99.90;;;;;;5057574;28;20357;-84
2023/07/24 08:15:10;;;;;;;12.68;11.57;;;20.70;99.90;;;;;;5057830;28;20036;-84
2023/07/24 08:17:35;;;;;;;12.88;11.57;;;20.70;99.90;;;;;;5041208;28;20028;-84
2023/07/24 08:20:01;;;;;;;12.45;11.35;;;20.70;99.90;;;;;;5057746;28;20032;-84
2023/07/24 08:22:27;;;;;;;12.23;11.05;;;20.70;99.90;;;;;;5057670;28;20056;-84
2023/07/24 08:24:53;;;;;;;11.60;10.68;;;20.70;99.90;;;;;;5057344;28;20028;-84
2023/07/24 08:27:19;;;;;;;11.63;10.52;;;20.70;99.80;;;;;;5057912;28;20060;-84
2023/07/24 08:29:45;;;;;;;11.88;10.80;;;20.70;99.80;;;;;;5057431;28;20033;-84
2023/07/24 08:32:10;;;;;;;11.05;10.07;;;20.80;99.90;;;;;;5057448;28;20084;-84
2023/07/24 08:34:36;;;;;;;11.52;10.63;;;20.80;99.80;;;;;;5057268;28;20024;-84
2023/07/24 08:37:02;;;;;;;11.45;10.35;;;20.90;99.90;;;;;;5057294;28;20498;-84
2023/07/24 08:39:27;;;;;;;11.20;10.30;;;20.90;99.80;;;;;;5057534;28;20056;-84
2023/07/24 08:41:53;;;;;;;11.70;10.52;;;20.90;99.60;;;;;;5024165;28;20361;-84
2023/07/24 08:44:25;;;;;;;11.68;10.68;;;20.90;99.60;;;;;;5040676;28;20032;-84
2023/07/24 08:46:52;;;;;;;10.80;9.88;;;20.90;99.50;;;;;;5057386;28;20021;-84
2023/07/24 08:49:19;;;;;;;10.57;9.68;;;20.90;99.50;;;;;;5057257;28;20105;-84
2023/07/24 08:51:48;;;;;;;11.25;10.13;;;20.90;99.50;;;;;;5057112;28;20086;-84
2023/07/24 08:54:14;;;;;;;11.98;11.05;;;21.00;99.50;;;;;;5040856;28;20436;-84
2023/07/24 08:56:40;;;;;;;11.98;10.98;;;21.00;99.40;;;;;;5057709;28;20130;-84
2023/07/24 08:59:06;;;;;;;10.77;9.93;;;21.00;99.30;;;;;;5024626;28;20033;-84
2023/07/24 09:01:32;;;;;;;10.60;9.80;;;21.10;99.30;;;;;;5025340;28;20025;-84
2023/07/24 09:03:57;;;;;;;11.63;10.73;;;21.10;99.30;;;;;;5026422;28;20038;-84
2023/07/24 09:06:23;;;;;;;11.75;10.77;;;21.20;99.40;;;;;;5074216;28;20013;-84
2023/07/24 09:08:53;;;;;;;11.18;10.27;;;21.30;99.40;;;;;;5081427;28;20012;-84
2023/07/24 09:11:18;;;;;;;11.75;10.68;;;21.30;99.30;;;;;;5065680;28;20017;-83
2023/07/24 09:13:44;;;;;;;10.55;9.75;;;21.40;99.10;;;;;;5064509;28;20016;-84
2023/07/24 09:16:24;;;;;;;10.98;10.00;;;21.50;99.10;;;;;;5080573;28;20037;-85
2023/07/24 09:18:53;;;;;;;11.60;10.60;;;21.60;99.00;;;;;;5048549;28;20036;-84
2023/07/24 09:21:32;;;;;;;11.38;10.38;;;21.60;98.90;;;;;;5075482;28;20029;-84
2023/07/24 09:24:08;;;;;;;10.77;9.95;;;21.70;98.90;;;;;;5040162;28;20438;-84
2023/07/24 09:26:33;;;;;;;10.55;9.70;;;21.70;98.80;;;;;;5056706;28;20044;-84
2023/07/24 09:28:59;;;;;;;10.63;9.63;;;21.70;98.70;;;;;;5023164;28;20428;-84
2023/07/24 09:31:35;;;;;;;10.65;9.85;;;21.80;98.60;;;;;;5023344;28;20034;-84
2023/07/24 09:34:01;;;;;;;9.82;9.13;;;21.80;98.40;;;;;;5056297;28;20371;-84
2023/07/24 09:36:38;;;;;;;10.82;9.93;;;21.90;98.30;;;;;;5056271;28;20025;-84
2023/07/24 09:39:06;;;;;;;11.05;10.15;;;21.90;98.10;;;;;;5074017;28;20361;-83
2023/07/24 09:41:31;;;;;;;11.05;10.25;;;21.90;98.00;;;;;;5056683;28;20027;-84
2023/07/24 09:44:00;;;;;;;10.55;9.65;;;21.90;97.80;;;;;;5039548;28;20107;-84
2023/07/24 09:46:28;;;;;;;10.82;9.95;;;21.90;97.60;;;;;;5056199;28;20025;-84
2023/07/24 09:48:55;;;;;;;10.18;9.27;;;21.90;97.50;;;;;;5038946;28;20040;-84
2023/07/24 09:51:23;;;;;;;11.10;10.20;;;21.90;97.60;;;;;;5039228;28;20427;-84
2023/07/24 09:54:12;;;;;;;10.52;9.63;;;22.00;97.50;;;;;;5073435;28;20020;-84
2023/07/24 09:56:38;;;;;;;11.02;10.15;;;21.90;97.30;;;;;;5060423;28;20033;-83
2023/07/24 09:59:05;;;;;;;10.93;10.07;;;22.00;97.20;;;;;;5055972;28;20044;-84
2023/07/24 10:01:32;;;;;;;10.77;9.93;;;22.00;97.10;;;;;;5039242;28;20029;-83
2023/07/24 10:04:02;;;;;;;10.07;9.38;;;21.90;97.10;;;;;;5073676;28;20047;-83
2023/07/24 10:06:29;;;;;;;11.13;10.15;;;21.90;97.10;;;;;;5056483;28;20032;-83
2023/07/24 10:08:57;;;;;;;10.48;9.65;;;21.90;96.90;;;;;;5055333;28;20049;-83
2023/07/24 10:11:24;;;;;;;12.25;11.30;;;21.90;96.70;;;;;;5073618;28;20083;-83
2023/07/24 10:14:13;;;;;;;12.63;11.65;;;21.90;96.40;;;;;;5022596;28;20377;-83
2023/07/24 10:16:40;;;;;;;12.82;11.82;;;21.90;96.30;;;;;;5054858;28;20133;-83
2023/07/24 10:19:14;;;;;;;13.70;12.75;;;21.80;96.30;;;;;;5038720;28;20128;-83
2023/07/24 10:21:48;;;;;;;13.32;12.32;;;21.80;96.30;;;;;;5055781;28;20040;-83
2023/07/24 10:24:17;;;;;;;16.08;14.70;;;21.80;96.30;;;;;;5039164;28;20376;-83
2023/07/24 10:26:43;;;;;;;14.27;13.18;;;21.90;96.20;;;;;;5039546;28;20032;-83
2023/07/24 10:29:09;;;;;;;16.45;15.23;;;21.90;96.20;;;;;;5055503;28;20032;-84
2023/07/24 10:31:35;;;;;;;15.93;14.85;;;21.90;96.20;;;;;;5055725;28;20031;-83
2023/07/24 10:34:05;;;;;;;14.90;13.82;;;21.90;96.20;;;;;;5039112;28;20028;-83
2023/07/24 10:36:34;;;;;;;12.80;11.80;;;21.90;96.30;;;;;;5038695;28;20078;-83
2023/07/24 10:39:01;;;;;;;14.00;12.93;;;21.90;96.30;;;;;;5038326;28;20078;-83
2023/07/24 10:41:37;;;;;;;12.90;12.00;;;21.90;96.30;;;;;;5039108;28;20029;-83
2023/07/24 10:44:03;;;;;;;12.25;11.35;;;21.90;96.30;;;;;;5055399;28;20025;-83
2023/07/24 10:46:39;;;;;;;11.98;11.13;;;21.90;96.30;;;;;;5073498;28;20066;-83
2023/07/24 10:49:06;;;;;;;13.30;12.25;;;21.90;96.10;;;;;;5038793;28;20104;-83
2023/07/24 10:51:33;;;;;;;9.23;8.55;;;21.90;96.00;;;;;;5055530;28;20508;-83
2023/07/24 10:54:00;;;;;;;9.57;8.77;;;21.80;95.90;;;;;;5073336;28;20052;-84
2023/07/24 10:56:26;;;;;;;9.93;9.02;;;21.90;96.00;;;;;;5039125;28;20428;-84
2023/07/24 10:58:51;;;;;;;10.23;9.35;;;21.80;95.90;;;;;;5055764;28;20071;-83
2023/07/24 11:01:18;;;;;;;8.63;7.82;;;21.80;96.00;;;;;;5022827;28;20032;-84
2023/07/24 11:03:44;;;;;;;8.68;7.95;;;21.80;96.00;;;;;;5046625;28;20024;-84
2023/07/24 11:06:15;;;;;;;9.48;8.68;;;21.80;96.00;;;;;;5097134;28;20096;-83
2023/07/24 11:08:41;;;;;;;9.65;8.90;;;21.80;95.90;;;;;;5080049;28;20024;-83
2023/07/24 11:11:08;;;;;;;9.90;8.88;;;21.70;96.00;;;;;;5047072;28;20015;-83
2023/07/24 11:13:34;;;;;;;9.95;8.93;;;21.70;96.00;;;;;;5079731;28;20036;-83
2023/07/24 11:16:05;;;;;;;9.05;8.35;;;21.70;96.00;;;;;;5087102;28;20020;-83
2023/07/24 11:18:31;;;;;;;10.63;9.60;;;21.70;96.10;;;;;;5073843;28;20029;-83
2023/07/24 11:20:57;;;;;;;9.65;8.85;;;21.70;96.00;;;;;;5039003;28;20052;-83
2023/07/24 11:23:24;;;;;;;9.18;8.43;;;21.70;96.00;;;;;;5073238;28;20059;-83
2023/07/24 11:25:54;;;;;;;9.52;8.68;;;21.80;96.00;;;;;;5055039;28;20053;-83
2023/07/24 11:28:20;;;;;;;9.15;8.45;;;21.80;96.10;;;;;;5076490;28;20036;-84
2023/07/24 11:30:46;;;;;;;9.85;8.95;;;21.80;96.00;;;;;;5076775;28;20031;-83
2023/07/24 11:33:14;;;;;;;9.68;8.85;;;21.80;96.00;;;;;;5076012;28;20032;-83
2023/07/24 11:35:40;;;;;;;10.15;9.25;;;21.80;96.00;;;;;;5076551;28;20464;-83
2023/07/24 11:38:10;;;;;;;9.82;9.02;;;21.80;96.20;;;;;;5075907;28;20037;-83
2023/07/24 11:40:41;;;;;;;10.38;9.32;;;21.80;95.80;;;;;;5076073;28;20103;-83
2023/07/24 11:43:20;;;;;;;9.38;8.65;;;21.70;95.90;;;;;;5058324;28;20055;-83
2023/07/24 11:45:52;;;;;;;9.85;9.05;;;21.70;95.80;;;;;;5076692;28;20020;-83
2023/07/24 11:48:18;;;;;;;11.02;9.15;;;21.70;95.90;;;;;;5060722;28;20056;-83
2023/07/24 11:50:56;;;;;;;9.90;8.88;;;21.70;96.00;;;;;;5058097;28;20035;-83
2023/07/24 11:53:29;;;;;;;9.65;8.75;;;21.80;96.20;;;;;;5076179;28;20035;-83
2023/07/24 11:56:02;;;;;;;8.18;7.45;;;21.80;96.40;;;;;;5075709;28;20074;-83
2023/07/24 11:58:29;;;;;;;8.65;7.95;;;21.90;96.40;;;;;;5076009;28;20028;-83
2023/07/24 12:00:55;;;;;;;9.52;8.63;;;21.90;96.40;;;;;;5058195;28;20143;-83
2023/07/24 12:03:31;;;;;;;9.32;8.52;;;22.00;96.50;;;;;;5075945;28;20070;-83
2023/07/24 12:05:56;;;;;;;9.65;8.82;;;22.00;96.40;;;;;;5075735;28;20024;-83
2023/07/24 12:08:31;;;;;;;9.18;8.38;;;22.00;96.40;;;;;;5075815;28;20029;-83
2023/07/24 12:10:56;;;;;;;8.80;8.00;;;22.10;96.40;;;;;;5057756;28;20169;-83
2023/07/24 12:13:22;;;;;;;9.40;8.50;;;22.10;96.50;;;;;;5041408;28;20053;-83
2023/07/24 12:15:48;;;;;;;9.25;8.30;;;22.10;96.50;;;;;;5057835;28;20048;-83
2023/07/24 12:18:15;;;;;;;9.05;8.35;;;22.20;96.30;;;;;;5057548;28;20524;-83
2023/07/24 12:20:41;;;;;;;8.77;7.97;;;22.20;96.20;;;;;;5075931;28;20020;-83
2023/07/24 12:23:06;;;;;;;8.23;7.53;;;22.20;96.10;;;;;;5041177;28;20032;-83
2023/07/24 12:25:32;;;;;;;8.32;7.53;;;22.30;95.90;;;;;;5024689;28;20474;-83
2023/07/24 12:27:58;;;;;;;7.68;6.90;;;22.20;95.70;;;;;;5058109;28;20024;-84
2023/07/24 12:30:23;;;;;;;8.55;7.72;;;22.30;95.70;;;;;;5058148;28;20032;-83
2023/07/24 12:32:49;;;;;;;8.30;7.60;;;22.40;95.60;;;;;;5057990;28;20451;-83
2023/07/24 12:35:15;;;;;;;7.90;7.20;;;22.40;95.30;;;;;;5024983;28;20028;-83
2023/07/24 12:37:41;;;;;;;8.30;7.47;;;22.40;95.20;;;;;;5075606;28;20037;-83
2023/07/24 12:40:08;;;;;;;8.50;7.20;;;22.40;95.00;;;;;;5041625;28;20033;-83
2023/07/24 12:42:34;;;;;;;8.18;7.47;;;22.40;95.00;;;;;;5040959;28;20025;-83